createdAt,value
2022-11-04T00:00:29.756Z,1
2022-11-04T00:06:48.545Z,1
2022-11-04T00:13:11.617Z,0.2
2022-11-04T00:19:31.574Z,0.2
2022-11-04T00:25:54.579Z,0.1
2022-11-04T00:32:14.578Z,0.1
2022-11-04T00:38:37.589Z,0.9
2022-11-04T00:44:57.604Z,0.9
2022-11-04T00:51:20.555Z,0.1
2022-11-04T00:57:40.578Z,0.1
2022-11-04T01:04:03.530Z,0.6
2022-11-04T01:10:23.535Z,0.6
2022-11-04T01:16:46.536Z,0.1
2022-11-04T01:23:06.554Z,0.1
2022-11-04T01:29:29.581Z,1
2022-11-04T01:35:49.546Z,1
2022-11-04T01:42:12.578Z,0.4
2022-11-04T01:48:32.531Z,0.4
2022-11-04T01:54:55.552Z,0.1
2022-11-04T02:01:15.642Z,0.1
2022-11-04T02:07:38.536Z,0.3
2022-11-04T02:13:58.705Z,0.3
2022-11-04T02:20:21.594Z,1.2
2022-11-04T02:26:41.621Z,1.2
2022-11-04T02:33:04.539Z,0.5
2022-11-04T02:39:24.537Z,0.5
2022-11-04T02:45:47.503Z,0.2
2022-11-04T02:52:07.600Z,0.2
2022-11-04T02:58:30.507Z,0.5
2022-11-04T03:04:50.519Z,0.5
2022-11-04T03:11:13.590Z,0.3
2022-11-04T03:17:33.498Z,0.3
2022-11-04T03:23:56.579Z,0.2
2022-11-04T03:36:39.725Z,0.9
2022-11-04T03:42:59.575Z,0.9
2022-11-04T03:49:22.572Z,0.6
2022-11-04T03:55:42.557Z,0.6
2022-11-04T04:02:05.611Z,0.4
2022-11-04T04:08:25.599Z,0.4
2022-11-04T04:14:48.549Z,0.1
2022-11-04T04:38:30.444Z,0.6
2022-11-04T04:44:50.471Z,0.6
2022-11-04T04:51:13.513Z,0.4
2022-11-04T04:57:33.555Z,0.4
2022-11-04T05:03:56.468Z,0.2
2022-11-04T05:10:16.506Z,0.2
2022-11-04T05:16:40.863Z,1
2022-11-04T05:22:59.539Z,1
2022-11-04T05:29:22.557Z,0.3
2022-11-04T05:35:42.654Z,0.3
2022-11-04T05:42:05.606Z,0.4
2022-11-04T05:48:25.524Z,0.4
2022-11-04T05:54:48.617Z,0.1
2022-11-04T06:01:08.534Z,0.1
2022-11-04T06:07:31.564Z,1.5
2022-11-04T06:13:51.557Z,1.5
2022-11-04T06:20:14.482Z,0.7
2022-11-04T06:26:34.510Z,0.7
2022-11-04T06:32:57.513Z,0.7
2022-11-04T06:39:17.491Z,0.7
2022-11-04T06:45:40.630Z,1.4
2022-11-04T06:52:00.660Z,1.4
2022-11-04T06:58:23.661Z,1.9
2022-11-04T07:04:43.623Z,1.9
2022-11-04T07:11:06.514Z,1
2022-11-04T07:17:26.760Z,1
2022-11-04T07:23:49.517Z,1.7
2022-11-04T07:30:09.553Z,1.7
2022-11-04T07:36:32.540Z,1.8
2022-11-04T07:42:52.561Z,1.8
2022-11-04T07:49:15.634Z,0.9
2022-11-04T07:55:39.021Z,0.9
2022-11-04T08:01:58.679Z,1
2022-11-04T08:08:18.564Z,1
2022-11-04T08:14:41.542Z,0.6
2022-11-04T08:21:01.523Z,0.6
2022-11-04T08:27:25.841Z,1.4
2022-11-04T08:33:45.542Z,1.4
2022-11-04T08:40:08.530Z,0.8
2022-11-04T08:46:28.536Z,0.8
2022-11-04T08:52:51.620Z,2
2022-11-04T08:59:11.855Z,2
2022-11-04T09:05:34.946Z,1.4
2022-11-04T09:11:54.727Z,1.4
2022-11-04T09:18:17.526Z,0.7
2022-11-04T09:24:37.709Z,0.7
2022-11-04T09:31:00.563Z,2.1
2022-11-04T09:46:49.515Z,1.6
2022-11-04T09:53:09.790Z,1.6
2022-11-04T09:59:32.528Z,1.9
2022-11-04T10:05:52.658Z,1.9
2022-11-04T10:12:15.534Z,1.9
2022-11-04T10:18:35.572Z,1.9
2022-11-04T10:24:58.588Z,1.2
2022-11-04T10:31:18.487Z,1.2
2022-11-04T10:37:41.781Z,2.2
2022-11-04T10:44:02.012Z,2.2
2022-11-04T10:50:29.664Z,0.3
2022-11-04T10:56:44.648Z,0.3
2022-11-04T11:03:07.851Z,0.3
2022-11-04T11:09:27.561Z,0.3
2022-11-04T11:15:50.603Z,0.8
2022-11-04T11:22:10.594Z,0.8
2022-11-04T11:28:33.703Z,0.3
2022-11-04T11:34:53.561Z,0.3
2022-11-04T11:41:24.671Z,1.2
2022-11-04T11:47:36.818Z,1.2
2022-11-04T11:53:59.510Z,0.3
2022-11-04T12:13:02.522Z,3.2
2022-11-04T12:19:25.534Z,0.2
2022-11-04T12:25:45.484Z,0.2
2022-11-04T12:32:08.751Z,0.1
2022-11-04T12:38:28.527Z,0.1
2022-11-04T12:44:51.534Z,1.3
2022-11-04T12:51:11.487Z,1.3
2022-11-04T12:57:34.528Z,1.1
2022-11-04T13:03:54.567Z,1.1
2022-11-04T13:10:17.516Z,0.4
2022-11-04T13:16:37.567Z,0.4
2022-11-04T13:23:03.281Z,0.4
2022-11-04T13:29:20.472Z,0.4
2022-11-04T13:35:43.590Z,0.7
2022-11-04T13:42:03.904Z,0.7
2022-11-04T13:48:26.565Z,1.2
2022-11-04T13:54:46.505Z,1.2
2022-11-04T14:01:09.510Z,0.6
2022-11-04T14:07:29.563Z,0.6
2022-11-04T14:13:52.526Z,0.9
2022-11-04T14:20:12.548Z,0.9
2022-11-04T14:26:35.497Z,1
2022-11-04T14:32:55.552Z,1
2022-11-04T14:39:18.562Z,2.5
2022-11-04T14:56:13.088Z,0.4
2022-11-04T15:02:35.065Z,2.1
2022-11-04T15:08:54.463Z,2.1
2022-11-04T15:15:17.604Z,2.1
2022-11-04T15:21:37.481Z,2.1
2022-11-04T15:28:00.512Z,1
2022-11-04T15:34:20.538Z,1
2022-11-04T15:40:43.481Z,1.5
2022-11-04T15:47:03.524Z,1.5
2022-11-04T15:53:26.552Z,1
2022-11-04T15:59:46.560Z,1
2022-11-04T16:06:09.559Z,1.4
2022-11-04T16:12:29.688Z,1.4
2022-11-04T16:18:52.529Z,2.5
2022-11-04T16:25:12.541Z,2.5
2022-11-04T16:31:35.513Z,2.7
2022-11-04T16:37:55.566Z,2.7
2022-11-04T16:44:18.529Z,3.3
2022-11-04T16:50:38.560Z,3.3
2022-11-04T16:57:01.532Z,2.8
2022-11-04T17:03:21.689Z,2.8
2022-11-04T17:09:44.576Z,1
2022-11-04T17:16:04.495Z,1
2022-11-04T17:22:27.585Z,2.3
2022-11-04T17:28:47.575Z,2.3
2022-11-04T17:35:10.494Z,1.4
2022-11-04T17:41:30.534Z,1.4
2022-11-04T17:47:53.563Z,2.9
2022-11-04T17:54:13.533Z,2.9
2022-11-04T18:00:36.533Z,2.4
2022-11-04T18:07:01.512Z,2.4
2022-11-04T18:13:19.552Z,2
2022-11-04T18:19:39.526Z,2
2022-11-04T18:26:02.634Z,5.4
2022-11-04T18:32:22.567Z,5.4
2022-11-04T18:38:45.486Z,4.3
2022-11-04T18:45:05.596Z,4.3
2022-11-04T18:51:28.467Z,3.7
2022-11-04T18:57:48.561Z,3.7
2022-11-04T19:04:11.567Z,4.7
2022-11-04T19:10:31.518Z,4.7
2022-11-04T19:16:54.521Z,3.7
2022-11-04T19:23:14.686Z,3.7
2022-11-04T19:29:37.570Z,5.9
2022-11-04T19:35:57.518Z,5.9
2022-11-04T19:42:20.521Z,4.8
2022-11-04T19:48:40.551Z,4.8
2022-11-04T19:55:03.530Z,6.3
2022-11-04T20:01:23.706Z,6.3
2022-11-04T20:25:50.933Z,8.9
2022-11-04T20:32:10.520Z,8.9
2022-11-04T20:38:33.558Z,4.5
2022-11-04T20:44:53.532Z,4.5
2022-11-04T20:51:16.479Z,4.5
2022-11-04T20:57:36.526Z,4.5
2022-11-04T21:03:59.567Z,5.8
2022-11-04T21:10:19.542Z,5.8
2022-11-04T21:16:42.511Z,5
2022-11-04T21:23:02.499Z,5
2022-11-04T21:29:25.595Z,3.6
2022-11-04T21:35:45.486Z,3.6
2022-11-04T21:42:08.880Z,6.3
2022-11-04T21:48:28.544Z,6.3
2022-11-04T21:54:51.466Z,5.4
2022-11-04T22:01:11.620Z,5.4
2022-11-04T22:07:34.525Z,6.9
2022-11-04T22:13:54.488Z,6.9
2022-11-04T22:20:17.615Z,5.7
2022-11-04T22:26:37.500Z,5.7
2022-11-04T22:33:00.552Z,4.1
2022-11-04T22:39:20.578Z,4.1
2022-11-04T22:45:43.493Z,5.1
2022-11-04T22:52:03.531Z,5.1
2022-11-04T22:58:26.529Z,8.2
2022-11-04T23:22:41.676Z,27
2022-11-04T23:29:01.535Z,27
2022-11-04T23:35:24.576Z,27
2022-11-04T23:41:44.565Z,27
2022-11-04T23:48:07.554Z,7.4
2022-11-04T23:54:27.560Z,7.4
